You are not logged in, Click here to log in
ICAO: RPLC Country: 菲律賓邦板牙省安赫萊斯市克拉克自由港區
Latitude: 15.186 Longitude: 120.56
Total Arrivals: 1 Total Departures: 1
Latest Arrival: FS99 (RCTP-RPLC)CHU. CHUHAO Latest Departure: FS98 (RPLC-RPMD)CHU. CHUHAO
Scenery:
METAR : RPLC 151600Z 17002KT 5000 -RA SCT017 OVC080 25/25 Q1008 RMK A2977

克拉克國際機場CRK